Al Rustaq, Oman
Current Conditions -  °F | °C
As of 7:50 AM on Saturday 25 Oct 2014 (Local Time) from EQMN Reporting Station
Few Clouds Few Clouds  
Wind Chill: 82°   Ceiling: Unl
Heat Index: 87°   Visibility: 6mi
Dew Point: 72°   Wind: 3mph
Humidity: 70%   Direction: 170°S
Pressure: 29.88"   Gusts: NA
Location:  23.4°N, 57.43°E
Report Text: EQMN 250350Z 17003KT 9999 FEW020 28/22 Q1012 BLU NOSIG
Loading
Personal Weather Stations






























Interactive Weather Map
Tropical Storm Tracking
New forecast layout! Learn more

10-Day Weather Forecast

Advertisements
Track Severe Weather on mobile